Time;durP1;ratioP1;P1;durP2;ratioP2;P2;SDS_P1;SDS_P2;PMS_P1;PMS_P2;Temp;Humidity;BMP_temperature;BMP_pressure;BME280_temperature;BME280_humidity;BME280_pressure;Samples;Min_cycle;Max_cycle;Signal;HPM_P1;HPM_P2
2021/12/19 00:01:25;;;;;;;4.68;3.20;;;6.40;54.70;;;;;;5107845;27;36106;-75
2021/12/19 00:09:14;;;;;;;4.22;3.03;;;6.40;54.70;;;;;;5125910;27;34133;-75
2021/12/19 00:11:40;;;;;;;3.17;2.83;;;6.40;54.70;;;;;;5090829;27;35818;-75
2021/12/19 00:14:07;;;;;;;3.88;2.95;;;6.40;54.70;;;;;;5107722;27;34269;-75
2021/12/19 00:16:33;;;;;;;2.88;2.20;;;6.40;54.80;;;;;;5107498;27;34237;-75
2021/12/19 00:18:59;;;;;;;4.18;2.88;;;6.40;54.80;;;;;;5090413;27;34199;-76
2021/12/19 00:21:26;;;;;;;3.72;2.85;;;6.40;54.70;;;;;;5107730;27;36271;-75
2021/12/19 00:23:54;;;;;;;4.90;3.70;;;6.40;54.80;;;;;;5107906;27;34190;-75
2021/12/19 00:26:20;;;;;;;5.13;3.70;;;6.40;54.90;;;;;;5126326;27;34414;-75
2021/12/19 00:28:48;;;;;;;6.00;4.25;;;6.40;54.90;;;;;;5125604;27;34231;-75
2021/12/19 00:31:14;;;;;;;4.93;3.83;;;6.40;54.90;;;;;;5107264;27;35593;-75
2021/12/19 00:33:41;;;;;;;4.00;3.55;;;6.50;55.70;;;;;;5107775;27;34177;-75
2021/12/19 00:36:08;;;;;;;4.68;3.90;;;6.40;54.80;;;;;;5107768;27;34230;-75
2021/12/19 00:38:34;;;;;;;6.57;3.95;;;6.40;54.80;;;;;;5107488;27;34532;-75
2021/12/19 00:41:00;;;;;;;5.05;3.17;;;6.50;54.90;;;;;;5125920;27;34349;-76
2021/12/19 00:43:36;;;;;;;6.38;3.53;;;6.50;54.90;;;;;;5107591;27;34509;-75
2021/12/19 00:46:07;;;;;;;3.88;3.25;;;6.50;54.80;;;;;;5107424;27;34284;-75
2021/12/19 00:48:35;;;;;;;5.65;4.18;;;6.50;54.90;;;;;;5090894;27;34347;-75
2021/12/19 00:51:02;;;;;;;4.88;3.75;;;6.50;54.90;;;;;;5090083;27;35831;-75
2021/12/19 00:53:28;;;;;;;5.63;3.80;;;6.50;54.90;;;;;;5107467;27;34080;-75
2021/12/19 00:55:55;;;;;;;4.72;3.70;;;6.60;54.80;;;;;;5106616;27;34423;-75
2021/12/19 00:58:21;;;;;;;6.18;4.38;;;6.60;54.80;;;;;;5107409;27;34257;-75
2021/12/19 01:00:47;;;;;;;6.55;4.13;;;6.60;54.80;;;;;;5125135;27;34232;-75
2021/12/19 01:03:13;;;;;;;6.53;4.10;;;6.60;54.80;;;;;;5090678;27;34444;-75
2021/12/19 01:05:41;;;;;;;5.18;3.72;;;6.60;54.70;;;;;;5107068;27;34150;-75
2021/12/19 01:08:11;;;;;;;6.78;4.45;;;6.60;54.70;;;;;;5125445;27;34173;-75
2021/12/19 01:10:38;;;;;;;5.78;4.22;;;6.60;54.80;;;;;;5106868;27;36103;-75
2021/12/19 01:13:05;;;;;;;6.78;4.53;;;6.60;54.80;;;;;;5124342;27;34222;-75
2021/12/19 01:15:31;;;;;;;6.32;3.70;;;6.60;54.70;;;;;;5107450;27;34226;-75
2021/12/19 01:17:58;;;;;;;5.88;4.28;;;6.60;54.70;;;;;;5106779;27;34454;-75
2021/12/19 01:20:27;;;;;;;5.75;3.72;;;6.60;54.70;;;;;;5124642;27;34264;-75
2021/12/19 01:22:54;;;;;;;6.30;3.90;;;6.70;54.70;;;;;;5089553;27;34144;-75
2021/12/19 01:25:21;;;;;;;5.30;3.83;;;6.70;54.80;;;;;;5107058;27;34269;-75
2021/12/19 01:27:47;;;;;;;6.00;4.30;;;6.70;54.80;;;;;;5125888;27;34319;-75
2021/12/19 01:30:14;;;;;;;6.80;4.10;;;6.70;54.70;;;;;;5125073;27;35438;-75
2021/12/19 01:32:41;;;;;;;6.18;4.03;;;6.70;54.70;;;;;;5106874;27;34383;-75
2021/12/19 01:35:09;;;;;;;6.55;3.72;;;6.70;54.70;;;;;;5125015;27;34182;-75
2021/12/19 01:37:35;;;;;;;5.93;3.88;;;6.70;54.70;;;;;;5089978;27;34552;-75
2021/12/19 01:40:03;;;;;;;5.53;3.90;;;6.70;54.60;;;;;;5124334;27;35004;-75
2021/12/19 01:42:32;;;;;;;6.55;4.20;;;6.70;54.60;;;;;;5106345;27;34383;-75
2021/12/19 01:44:59;;;;;;;7.32;5.13;;;6.70;54.70;;;;;;5106633;27;34263;-75
2021/12/19 01:47:25;;;;;;;6.25;4.00;;;6.60;54.60;;;;;;5106291;27;34531;-75
2021/12/19 01:49:51;;;;;;;7.10;4.03;;;6.70;54.80;;;;;;5105997;27;36022;-75
2021/12/19 01:52:18;;;;;;;7.18;4.13;;;6.60;54.70;;;;;;5106645;27;34293;-75
2021/12/19 01:54:45;;;;;;;7.75;4.43;;;6.70;54.80;;;;;;5106186;27;34430;-75
2021/12/19 01:57:11;;;;;;;8.18;4.97;;;6.70;54.80;;;;;;5125288;27;34104;-75
2021/12/19 01:59:37;;;;;;;6.38;4.00;;;6.70;54.80;;;;;;5105960;27;36442;-75
2021/12/19 02:02:04;;;;;;;7.63;4.07;;;6.70;54.70;;;;;;5106568;27;34199;-75
2021/12/19 02:04:32;;;;;;;8.25;4.57;;;6.70;54.50;;;;;;5106634;27;34276;-75
2021/12/19 02:06:59;;;;;;;8.30;4.13;;;6.70;54.50;;;;;;5106242;27;34225;-75
2021/12/19 02:09:26;;;;;;;7.45;4.50;;;6.70;54.50;;;;;;5106787;27;35600;-75
2021/12/19 02:11:52;;;;;;;9.90;5.05;;;6.70;54.50;;;;;;5124447;27;34549;-75
2021/12/19 02:14:19;;;;;;;8.10;4.68;;;6.70;54.50;;;;;;5106589;27;34393;-75
2021/12/19 02:16:47;;;;;;;11.35;5.53;;;6.70;54.40;;;;;;5106230;27;34172;-75
2021/12/19 02:19:13;;;;;;;8.07;5.00;;;6.70;54.40;;;;;;5106207;27;35879;-75
2021/12/19 02:21:40;;;;;;;10.07;5.43;;;6.70;54.40;;;;;;5106216;27;34458;-75
2021/12/19 02:24:09;;;;;;;7.55;4.80;;;6.70;54.40;;;;;;5089292;27;34166;-75
2021/12/19 02:26:37;;;;;;;9.25;5.22;;;6.70;54.50;;;;;;5107369;27;34313;-75
2021/12/19 02:29:04;;;;;;;9.15;5.38;;;6.70;54.40;;;;;;5071800;27;35818;-75
2021/12/19 02:31:31;;;;;;;8.75;5.32;;;6.70;54.40;;;;;;5106080;27;34092;-76
2021/12/19 02:34:07;;;;;;;10.10;5.78;;;6.70;54.40;;;;;;5124194;27;34158;-75
2021/12/19 02:36:52;;;;;;;9.45;5.72;;;6.70;54.30;;;;;;5105676;27;34526;-75
2021/12/19 02:50:16;;;;;;;12.27;5.80;;;6.60;54.20;;;;;;5124122;27;34275;-75
2021/12/19 02:52:43;;;;;;;7.22;4.72;;;6.60;54.20;;;;;;5088601;27;34113;-75
2021/12/19 02:55:09;;;;;;;9.07;5.28;;;6.60;54.20;;;;;;5105173;27;34178;-75
2021/12/19 02:57:38;;;;;;;8.40;5.47;;;6.60;54.20;;;;;;5123917;27;34160;-75
2021/12/19 03:00:09;;;;;;;9.10;5.60;;;6.60;54.20;;;;;;5087998;27;35948;-75
2021/12/19 03:02:35;;;;;;;10.00;5.93;;;6.60;54.30;;;;;;5088729;27;34119;-75
2021/12/19 03:05:02;;;;;;;9.90;6.18;;;6.60;54.30;;;;;;5105610;27;34476;-75
2021/12/19 03:07:29;;;;;;;9.25;6.32;;;6.60;54.30;;;;;;5106066;27;34300;-75
2021/12/19 03:13:01;;;;;;;10.02;6.75;;;6.50;54.30;;;;;;5107761;27;34435;-75
2021/12/19 03:18:10;;;;;;;10.55;6.47;;;6.50;54.30;;;;;;5131904;27;34541;-75
2021/12/19 03:20:38;;;;;;;10.88;6.80;;;6.50;54.30;;;;;;5144403;27;34150;-75
2021/12/19 03:23:06;;;;;;;8.23;5.75;;;6.50;54.40;;;;;;5109458;27;34135;-75
2021/12/19 03:25:34;;;;;;;10.13;6.00;;;6.50;54.40;;;;;;5126485;27;34135;-75
2021/12/19 03:28:03;;;;;;;11.45;6.18;;;6.60;54.40;;;;;;5125650;27;34501;-75
2021/12/19 03:30:30;;;;;;;9.70;5.70;;;6.60;54.40;;;;;;5126223;27;35569;-75
2021/12/19 03:32:57;;;;;;;9.15;5.57;;;6.50;54.30;;;;;;5126012;27;34413;-75
2021/12/19 03:35:24;;;;;;;8.88;6.22;;;6.50;54.30;;;;;;5128302;27;34106;-75
2021/12/19 03:37:52;;;;;;;9.90;5.78;;;6.60;54.30;;;;;;5129195;27;34441;-75
2021/12/19 03:40:24;;;;;;;11.57;6.30;;;6.60;54.30;;;;;;5129175;27;35623;-75
2021/12/19 03:42:53;;;;;;;11.10;6.28;;;6.50;54.30;;;;;;5129518;27;34188;-75
2021/12/19 03:45:22;;;;;;;9.60;6.22;;;6.50;54.30;;;;;;5147672;27;34244;-75
2021/12/19 03:47:49;;;;;;;9.57;6.15;;;6.50;54.40;;;;;;5129120;27;34336;-75
2021/12/19 03:50:20;;;;;;;8.45;5.68;;;6.50;54.40;;;;;;5147182;27;35332;-75
2021/12/19 03:52:47;;;;;;;7.70;5.35;;;6.50;54.30;;;;;;5128721;27;34268;-75
2021/12/19 03:55:13;;;;;;;7.03;5.10;;;6.50;54.30;;;;;;5147406;27;34148;-75
2021/12/19 03:57:40;;;;;;;7.93;5.22;;;6.40;54.20;;;;;;5147285;27;34280;-75
2021/12/19 04:00:10;;;;;;;9.27;5.55;;;6.40;54.30;;;;;;5128438;27;35663;-75
2021/12/19 04:02:37;;;;;;;8.95;5.18;;;6.40;54.30;;;;;;5112220;27;34383;-75
2021/12/19 04:05:03;;;;;;;7.65;4.78;;;6.40;54.30;;;;;;5128953;27;34435;-75
2021/12/19 04:07:29;;;;;;;8.93;5.28;;;6.30;54.40;;;;;;5129033;27;34353;-75
2021/12/19 04:09:55;;;;;;;7.45;5.25;;;6.30;54.30;;;;;;5128766;27;36948;-75
2021/12/19 04:12:25;;;;;;;9.10;5.38;;;6.30;54.40;;;;;;5147110;27;34252;-75
2021/12/19 04:14:51;;;;;;;9.50;5.18;;;6.30;54.40;;;;;;5128606;27;34422;-75
2021/12/19 04:17:17;;;;;;;9.95;5.35;;;6.30;54.40;;;;;;5128271;27;34209;-75
2021/12/19 04:19:43;;;;;;;8.63;4.93;;;6.30;54.40;;;;;;5128947;27;36621;-75
2021/12/19 04:22:09;;;;;;;7.53;4.47;;;6.30;54.40;;;;;;5128638;27;34146;-75
2021/12/19 04:24:36;;;;;;;9.15;5.05;;;6.30;54.40;;;;;;5128912;27;34307;-75
2021/12/19 04:27:02;;;;;;;6.80;4.70;;;6.30;54.40;;;;;;5128902;27;34192;-75
2021/12/19 04:29:28;;;;;;;7.13;4.78;;;6.30;54.40;;;;;;5146721;27;34963;-75
2021/12/19 04:31:55;;;;;;;8.23;4.97;;;6.20;54.20;;;;;;5127982;27;34299;-75
2021/12/19 04:34:22;;;;;;;6.30;4.70;;;6.20;54.30;;;;;;5128227;27;34454;-75
2021/12/19 04:36:54;;;;;;;8.32;5.05;;;6.20;54.30;;;;;;5128291;27;34436;-75
2021/12/19 04:39:38;;;;;;;7.25;4.95;;;6.30;54.40;;;;;;5127978;27;35687;-74
2021/12/19 04:43:01;;;;;;;6.72;4.28;;;6.30;54.40;;;;;;5128022;27;34394;-75
2021/12/19 04:55:48;;;;;;;8.23;4.70;;;6.20;54.20;;;;;;5145875;27;34145;-75
2021/12/19 04:59:05;;;;;;;7.53;4.15;;;6.30;54.30;;;;;;5128055;27;34474;-75
2021/12/19 05:01:17;;;;;;;5.90;3.88;;;6.20;54.20;;;;;;5131310;27;34754;-75
2021/12/19 05:14:34;;;;;;;6.55;3.70;;;6.20;54.10;;;;;;5145503;27;34248;-74
2021/12/19 05:17:06;;;;;;;7.93;4.68;;;6.20;54.10;;;;;;5127040;27;34304;-75
2021/12/19 05:19:46;;;;;;;8.85;3.92;;;6.20;54.10;;;;;;5146079;27;34527;-75
2021/12/19 05:22:12;;;;;;;7.00;4.05;;;6.20;54.20;;;;;;5127454;27;36035;-75
2021/12/19 05:24:59;;;;;;;5.97;3.92;;;6.20;54.20;;;;;;5127693;27;34218;-75
2021/12/19 05:27:24;;;;;;;7.47;4.28;;;6.20;54.10;;;;;;5131229;27;34293;-75
2021/12/19 05:29:50;;;;;;;8.35;4.93;;;6.20;54.20;;;;;;5127256;27;34362;-75
2021/12/19 05:32:16;;;;;;;9.15;4.28;;;6.20;54.10;;;;;;5109625;27;35930;-75
2021/12/19 05:34:42;;;;;;;6.35;3.70;;;6.20;54.00;;;;;;5127551;27;34222;-75
2021/12/19 05:45:13;;;;;;;7.35;3.85;;;6.20;54.10;;;;;;5145376;27;34107;-75
2021/12/19 05:47:42;;;;;;;8.23;4.53;;;6.20;54.10;;;;;;5127494;27;34336;-75
2021/12/19 05:50:08;;;;;;;8.27;4.72;;;6.20;54.10;;;;;;5128101;27;34317;-75
2021/12/19 05:52:35;;;;;;;7.43;4.40;;;6.20;54.20;;;;;;5127316;27;35742;-75
2021/12/19 05:55:01;;;;;;;7.20;3.95;;;6.30;55.00;;;;;;5111088;27;34164;-75
2021/12/19 05:57:27;;;;;;;7.47;4.40;;;6.30;54.20;;;;;;5127258;27;34094;-75
2021/12/19 05:59:53;;;;;;;8.05;4.55;;;6.30;54.10;;;;;;5110972;27;34111;-75
2021/12/19 06:02:19;;;;;;;10.07;4.78;;;6.30;54.10;;;;;;5127267;27;36639;-75
2021/12/19 06:04:45;;;;;;;9.45;4.93;;;6.30;54.10;;;;;;5127992;27;34216;-75
2021/12/19 06:07:11;;;;;;;8.80;4.57;;;6.30;54.10;;;;;;5146417;27;34291;-75
2021/12/19 06:09:37;;;;;;;9.18;4.45;;;6.30;54.20;;;;;;5128297;27;34236;-75
2021/12/19 06:12:04;;;;;;;8.45;4.78;;;6.20;54.10;;;;;;5126925;27;35708;-75
2021/12/19 06:14:33;;;;;;;10.30;4.88;;;6.20;54.10;;;;;;5128738;27;34173;-75
2021/12/19 06:17:00;;;;;;;9.27;4.90;;;6.20;54.20;;;;;;5147717;27;34357;-75
2021/12/19 06:19:27;;;;;;;10.77;5.28;;;6.20;54.20;;;;;;5147104;27;34446;-75
2021/12/19 06:21:54;;;;;;;10.30;5.45;;;6.20;54.20;;;;;;5145466;27;34388;-75
2021/12/19 06:24:20;;;;;;;8.30;4.80;;;6.30;54.40;;;;;;5126910;27;34389;-75
2021/12/19 06:26:46;;;;;;;10.77;5.07;;;6.30;54.30;;;;;;5110248;27;34150;-75
2021/12/19 06:29:13;;;;;;;10.05;5.03;;;6.30;54.30;;;;;;5145990;27;34108;-75
2021/12/19 06:31:39;;;;;;;9.57;5.10;;;6.30;54.20;;;;;;5110079;27;35596;-75
2021/12/19 06:34:05;;;;;;;10.13;5.10;;;6.30;54.20;;;;;;5109897;27;34342;-75
2021/12/19 06:36:31;;;;;;;9.32;4.80;;;6.30;54.30;;;;;;5127053;27;34292;-75
2021/12/19 06:38:58;;;;;;;10.63;4.97;;;6.30;54.20;;;;;;5145443;27;34469;-75
2021/12/19 06:41:24;;;;;;;9.95;4.55;;;6.30;54.30;;;;;;5126943;27;35968;-75
2021/12/19 06:43:50;;;;;;;9.82;4.85;;;6.30;54.20;;;;;;5126888;27;34103;-75
2021/12/19 06:46:16;;;;;;;10.85;5.38;;;6.30;54.30;;;;;;5127612;27;34193;-75
2021/12/19 06:48:42;;;;;;;9.40;5.45;;;6.30;54.30;;;;;;5100485;27;34060;-75
2021/12/19 06:51:08;;;;;;;10.02;5.30;;;6.30;54.20;;;;;;5138507;27;35313;-75
2021/12/19 06:53:35;;;;;;;10.60;5.38;;;6.30;54.20;;;;;;5086323;28;34285;-75
2021/12/19 06:56:01;;;;;;;9.07;4.45;;;6.40;54.20;;;;;;5103124;27;34279;-75
2021/12/19 06:58:27;;;;;;;9.98;5.07;;;6.40;54.20;;;;;;5086394;28;34649;-75
2021/12/19 07:00:53;;;;;;;9.23;5.13;;;6.30;54.90;;;;;;5103831;28;34355;-75
2021/12/19 07:03:23;;;;;;;7.60;4.53;;;6.40;54.20;;;;;;5085833;28;34309;-75
2021/12/19 07:05:50;;;;;;;10.45;4.72;;;6.30;54.20;;;;;;5085124;28;34373;-75
2021/12/19 07:08:17;;;;;;;9.25;5.38;;;6.30;54.20;;;;;;5104442;27;34289;-75
2021/12/19 07:10:44;;;;;;;11.98;5.93;;;6.30;54.20;;;;;;5106778;28;35285;-75
2021/12/19 07:13:10;;;;;;;9.23;5.15;;;6.40;54.20;;;;;;5107394;28;33683;-75
2021/12/19 07:15:36;;;;;;;8.57;4.93;;;6.30;54.30;;;;;;5089771;28;34166;-75
2021/12/19 07:18:04;;;;;;;8.63;3.78;;;6.30;54.30;;;;;;5096032;27;34104;-75
2021/12/19 07:20:30;;;;;;;7.72;4.72;;;6.30;54.40;;;;;;5109378;27;36500;-75
2021/12/19 07:22:57;;;;;;;8.80;5.57;;;6.30;54.30;;;;;;5092683;27;34645;-75
2021/12/19 07:25:23;;;;;;;9.20;4.75;;;6.30;54.30;;;;;;5109985;27;34360;-75
2021/12/19 07:27:49;;;;;;;9.40;5.07;;;6.30;54.30;;;;;;5109091;27;34526;-75
2021/12/19 07:30:15;;;;;;;10.77;5.55;;;6.40;54.30;;;;;;5092466;27;35512;-74
2021/12/19 07:32:41;;;;;;;8.18;5.03;;;6.40;54.30;;;;;;5108913;27;34339;-75
2021/12/19 07:35:09;;;;;;;8.07;4.63;;;6.40;54.30;;;;;;5109544;27;34152;-75
2021/12/19 07:37:37;;;;;;;8.98;4.70;;;6.40;54.30;;;;;;5092960;27;34449;-75
2021/12/19 07:42:46;;;;;;;11.52;5.25;;;6.40;54.30;;;;;;5126859;27;34107;-75
2021/12/19 07:45:14;;;;;;;10.07;5.35;;;6.40;54.20;;;;;;5108610;27;34241;-75
2021/12/19 07:47:41;;;;;;;8.45;4.97;;;6.40;54.30;;;;;;5127126;27;34316;-75
2021/12/19 07:50:09;;;;;;;9.75;5.57;;;6.50;54.40;;;;;;5108014;27;35624;-75
2021/12/19 07:52:35;;;;;;;12.02;5.93;;;6.50;54.20;;;;;;5091525;27;34371;-75
2021/12/19 07:55:03;;;;;;;12.23;5.80;;;6.50;54.20;;;;;;5108789;27;34312;-75
2021/12/19 07:57:29;;;;;;;9.38;4.57;;;6.50;54.20;;;;;;5092266;27;34219;-75
2021/12/19 07:59:55;;;;;;;9.23;4.95;;;6.50;54.30;;;;;;5126187;27;34467;-75
2021/12/19 08:02:21;;;;;;;8.20;4.63;;;6.50;54.40;;;;;;5091524;27;34306;-75
2021/12/19 08:04:47;;;;;;;8.55;5.28;;;6.50;54.30;;;;;;5126356;27;34163;-75
2021/12/19 08:07:16;;;;;;;11.00;5.35;;;6.60;54.20;;;;;;5108988;27;34149;-74
2021/12/19 08:12:24;;;;;;;11.23;5.57;;;6.60;54.10;;;;;;5110478;27;34288;-75
2021/12/19 08:14:50;;;;;;;10.23;5.32;;;6.70;54.30;;;;;;5107978;27;34288;-75
2021/12/19 08:17:17;;;;;;;9.50;5.38;;;6.70;54.30;;;;;;5107427;27;34287;-75
2021/12/19 08:19:44;;;;;;;7.82;4.75;;;6.70;54.30;;;;;;5087507;27;35944;-75
2021/12/19 08:22:14;;;;;;;9.73;5.60;;;6.70;54.30;;;;;;5105924;28;34210;-75
2021/12/19 08:24:41;;;;;;;7.57;4.65;;;6.70;54.30;;;;;;5088085;28;34382;-75
2021/12/19 08:27:07;;;;;;;9.60;5.35;;;6.80;54.40;;;;;;5122147;27;34686;-75
2021/12/19 08:32:18;;;;;;;9.98;5.35;;;6.80;54.30;;;;;;5105604;28;34133;-75
2021/12/19 08:34:45;;;;;;;10.77;5.45;;;6.80;54.10;;;;;;5105943;28;34412;-75
2021/12/19 08:37:11;;;;;;;10.00;5.50;;;6.80;54.10;;;;;;5121878;27;34070;-75
2021/12/19 08:39:38;;;;;;;9.98;4.68;;;6.80;54.10;;;;;;5105806;28;34341;-75
2021/12/19 08:42:06;;;;;;;8.57;5.18;;;6.80;54.10;;;;;;5087199;28;34377;-75
2021/12/19 08:44:33;;;;;;;8.55;4.55;;;6.90;54.20;;;;;;5104479;27;34424;-75
2021/12/19 08:46:59;;;;;;;8.57;4.90;;;6.90;54.10;;;;;;5121783;27;34387;-75
2021/12/19 08:49:25;;;;;;;9.68;5.28;;;7.00;54.10;;;;;;5105137;28;34205;-75
2021/12/19 08:51:51;;;;;;;9.63;5.65;;;7.00;54.10;;;;;;5070452;28;34200;-75
2021/12/19 08:54:17;;;;;;;9.68;5.40;;;7.00;54.00;;;;;;5105120;28;34091;-75
2021/12/19 08:56:43;;;;;;;9.73;5.22;;;7.10;54.00;;;;;;5087368;28;34427;-75
2021/12/19 08:59:10;;;;;;;11.35;5.88;;;7.10;53.90;;;;;;5104913;28;34502;-75
2021/12/19 09:01:36;;;;;;;12.85;5.95;;;7.10;53.90;;;;;;5087364;28;34203;-75
2021/12/19 09:04:02;;;;;;;10.18;5.60;;;7.10;53.90;;;;;;5087497;28;34271;-75
2021/12/19 09:06:29;;;;;;;9.63;5.38;;;7.10;53.80;;;;;;5122412;27;34478;-75
2021/12/19 09:08:55;;;;;;;12.02;5.10;;;7.10;53.90;;;;;;5113373;27;35150;-75
2021/12/19 09:11:22;;;;;;;8.57;5.00;;;7.20;53.90;;;;;;5108544;27;34177;-75
2021/12/19 09:13:48;;;;;;;11.32;5.78;;;7.20;53.90;;;;;;5092036;27;34047;-75
2021/12/19 09:16:14;;;;;;;9.35;4.85;;;7.20;53.90;;;;;;5109397;27;34141;-75
2021/12/19 09:18:40;;;;;;;10.77;5.32;;;7.30;54.00;;;;;;5089952;27;35655;-76
2021/12/19 09:21:06;;;;;;;8.18;4.43;;;7.30;53.80;;;;;;5125385;27;34223;-75
2021/12/19 09:23:33;;;;;;;6.82;4.32;;;7.30;53.90;;;;;;5125933;27;34156;-75
2021/12/19 09:26:00;;;;;;;7.70;3.88;;;7.40;53.80;;;;;;5125368;27;34312;-75
2021/12/19 09:28:26;;;;;;;5.95;3.45;;;7.40;53.70;;;;;;5090334;27;36421;-75
2021/12/19 09:30:52;;;;;;;5.75;3.60;;;7.50;53.60;;;;;;5107087;27;34130;-75
2021/12/19 09:33:18;;;;;;;5.68;3.17;;;7.50;53.50;;;;;;5106524;27;34383;-75
2021/12/19 09:35:44;;;;;;;4.50;2.72;;;7.40;53.40;;;;;;5107556;27;34177;-75
2021/12/19 09:38:10;;;;;;;3.83;2.40;;;7.40;53.30;;;;;;5106928;27;34518;-75
2021/12/19 09:40:38;;;;;;;4.00;2.45;;;7.40;53.30;;;;;;5126140;27;34313;-75
2021/12/19 09:43:10;;;;;;;4.95;2.05;;;7.40;53.20;;;;;;5106547;27;34460;-75
2021/12/19 09:45:37;;;;;;;3.42;2.30;;;7.50;53.40;;;;;;5108115;27;34096;-75
2021/12/19 09:48:03;;;;;;;4.05;2.47;;;7.50;53.30;;;;;;5090999;27;36803;-75
2021/12/19 09:50:30;;;;;;;3.05;2.42;;;7.50;53.30;;;;;;5091419;27;34191;-75
2021/12/19 09:52:57;;;;;;;3.35;2.35;;;7.50;53.20;;;;;;5089613;27;34069;-75
2021/12/19 09:55:23;;;;;;;3.70;2.33;;;7.60;53.10;;;;;;5125348;27;34262;-75
2021/12/19 09:57:51;;;;;;;2.47;1.80;;;7.60;53.10;;;;;;5090139;27;35671;-75
2021/12/19 10:00:19;;;;;;;3.13;1.75;;;7.70;53.10;;;;;;5074263;27;34189;-75
2021/12/19 10:02:45;;;;;;;2.30;1.80;;;7.70;53.10;;;;;;5107168;27;34456;-75
2021/12/19 10:05:25;;;;;;;2.42;1.88;;;7.80;53.00;;;;;;5107135;27;34217;-75
2021/12/19 10:07:54;;;;;;;2.92;2.05;;;7.80;52.90;;;;;;5106744;27;35692;-75
2021/12/19 10:10:33;;;;;;;3.17;1.60;;;7.90;52.70;;;;;;5089528;27;34333;-75
2021/12/19 10:13:00;;;;;;;3.10;2.08;;;7.90;52.70;;;;;;5091356;27;34084;-75
2021/12/19 10:15:33;;;;;;;2.45;1.55;;;8.00;52.60;;;;;;5106926;27;34190;-75
2021/12/19 10:18:06;;;;;;;3.47;2.03;;;8.00;52.50;;;;;;5089333;27;35496;-75
2021/12/19 10:20:45;;;;;;;3.45;1.58;;;8.00;52.30;;;;;;5106935;27;34110;-75
2021/12/19 10:23:16;;;;;;;1.92;1.33;;;8.00;52.00;;;;;;5088748;27;34222;-75
2021/12/19 10:25:42;;;;;;;2.17;1.70;;;8.00;52.30;;;;;;5106682;27;34125;-75
2021/12/19 10:28:10;;;;;;;2.65;1.98;;;8.00;52.30;;;;;;5089159;27;36070;-76
2021/12/19 10:30:39;;;;;;;2.22;1.77;;;8.00;52.30;;;;;;5106093;27;34454;-75
2021/12/19 10:33:10;;;;;;;2.47;1.73;;;8.00;52.30;;;;;;5105976;27;34251;-75
2021/12/19 10:35:39;;;;;;;2.53;1.58;;;8.10;52.10;;;;;;5089165;27;34176;-75
2021/12/19 10:38:15;;;;;;;2.65;1.40;;;8.10;52.30;;;;;;5105365;27;36307;-75
2021/12/19 10:40:53;;;;;;;2.20;1.48;;;8.20;52.20;;;;;;5124434;27;34413;-75
2021/12/19 10:43:20;;;;;;;2.35;1.40;;;8.20;51.40;;;;;;5090201;27;34390;-75
2021/12/19 10:45:50;;;;;;;1.45;1.35;;;8.20;51.90;;;;;;5109071;27;34206;-75
2021/12/19 10:48:36;;;;;;;2.53;1.85;;;8.30;52.00;;;;;;5109269;27;35341;-74
2021/12/19 10:51:09;;;;;;;2.58;1.42;;;8.30;51.70;;;;;;5109162;27;34296;-75
2021/12/19 10:53:42;;;;;;;1.70;1.40;;;8.30;51.40;;;;;;5127668;27;34188;-75
2021/12/19 10:56:12;;;;;;;2.03;1.45;;;8.20;51.70;;;;;;5109413;27;34092;-75
2021/12/19 10:58:43;;;;;;;1.45;1.33;;;8.30;51.90;;;;;;5127698;27;34892;-75
2021/12/19 11:01:14;;;;;;;1.70;1.33;;;8.30;51.70;;;;;;5126892;27;34303;-75
2021/12/19 11:03:47;;;;;;;1.50;1.40;;;8.40;51.50;;;;;;5126847;27;34262;-75
2021/12/19 11:06:18;;;;;;;2.15;1.45;;;8.40;51.50;;;;;;5128003;27;34187;-75
2021/12/19 11:08:45;;;;;;;2.72;1.75;;;8.50;51.50;;;;;;5092242;27;36816;-74
2021/12/19 11:11:29;;;;;;;1.70;1.30;;;8.60;51.50;;;;;;5091362;27;34116;-75
2021/12/19 11:13:55;;;;;;;2.05;1.42;;;8.70;51.60;;;;;;5091383;27;34249;-75
2021/12/19 11:16:21;;;;;;;1.70;1.35;;;8.70;51.20;;;;;;5108394;27;34495;-75
2021/12/19 11:21:34;;;;;;;1.30;1.10;;;8.90;51.00;;;;;;5111715;27;34156;-75
2021/12/19 11:24:05;;;;;;;1.73;1.40;;;8.90;51.00;;;;;;5109211;27;34268;-75
2021/12/19 11:26:32;;;;;;;1.80;1.13;;;8.90;50.90;;;;;;5109292;27;34060;-75
2021/12/19 11:28:58;;;;;;;1.80;1.50;;;9.00;51.00;;;;;;5127147;27;35098;-75
2021/12/19 11:31:28;;;;;;;1.17;1.05;;;9.00;50.80;;;;;;5091274;27;34318;-75
2021/12/19 11:34:14;;;;;;;1.50;1.40;;;9.10;50.80;;;;;;5091800;27;34313;-75
2021/12/19 11:36:44;;;;;;;1.60;1.30;;;9.20;49.20;;;;;;5092048;27;34214;-75
2021/12/19 11:39:11;;;;;;;1.40;1.25;;;9.20;50.70;;;;;;5108047;27;35638;-75
2021/12/19 11:41:39;;;;;;;1.60;1.20;;;9.30;50.70;;;;;;5091980;27;34514;-75
2021/12/19 11:44:08;;;;;;;1.08;1.05;;;9.30;50.70;;;;;;5091562;27;34529;-75
2021/12/19 11:46:45;;;;;;;1.75;1.30;;;9.30;50.80;;;;;;5108666;27;34547;-75
2021/12/19 11:49:18;;;;;;;1.42;1.08;;;9.40;49.80;;;;;;5091452;27;35754;-75
2021/12/19 11:51:45;;;;;;;1.80;1.48;;;9.40;50.60;;;;;;5108814;27;34417;-75
2021/12/19 11:54:16;;;;;;;1.38;1.13;;;9.40;50.70;;;;;;5104825;27;34264;-75
2021/12/19 11:57:10;;;;;;;1.52;1.20;;;9.40;50.80;;;;;;5118923;27;34411;-76
2021/12/19 11:59:39;;;;;;;1.67;1.20;;;9.50;48.60;;;;;;5095799;27;34314;-75
2021/12/19 12:02:21;;;;;;;2.22;1.40;;;9.60;50.70;;;;;;5108325;27;34244;-76
2021/12/19 12:05:22;;;;;;;1.50;1.40;;;9.60;48.90;;;;;;5127171;27;34217;-75
2021/12/19 12:08:22;;;;;;;3.28;1.30;;;9.60;48.00;;;;;;5092047;27;34457;-75
2021/12/19 12:11:08;;;;;;;2.78;1.48;;;9.70;48.80;;;;;;5108851;27;34354;-76
2021/12/19 12:13:42;;;;;;;1.92;1.42;;;9.70;47.20;;;;;;5094353;27;34281;-75
2021/12/19 12:16:35;;;;;;;1.77;1.38;;;9.70;50.20;;;;;;5108368;27;34260;-75
2021/12/19 12:19:05;;;;;;;1.13;1.02;;;9.70;48.00;;;;;;5110444;27;34131;-75
2021/12/19 12:21:42;;;;;;;1.35;1.23;;;9.70;50.30;;;;;;5146564;27;34047;-75
2021/12/19 12:24:20;;;;;;;1.60;1.20;;;9.80;50.30;;;;;;5128853;27;34261;-75
2021/12/19 12:26:57;;;;;;;1.25;1.15;;;9.80;49.00;;;;;;5146907;27;34394;-75
2021/12/19 12:29:23;;;;;;;2.08;1.20;;;9.90;50.10;;;;;;5112445;27;34449;-75
2021/12/19 12:31:51;;;;;;;3.10;1.77;;;10.00;50.30;;;;;;5128243;27;35501;-76
2021/12/19 12:34:18;;;;;;;1.15;1.05;;;10.20;50.20;;;;;;5128072;27;35069;-75
2021/12/19 12:36:45;;;;;;;1.25;1.15;;;10.40;49.90;;;;;;5128728;27;34531;-76
2021/12/19 12:39:17;;;;;;;1.55;1.10;;;10.40;49.50;;;;;;5128353;27;34431;-75
2021/12/19 12:41:58;;;;;;;1.40;1.13;;;10.40;49.10;;;;;;5146368;27;34110;-76
2021/12/19 12:44:24;;;;;;;1.25;1.10;;;10.30;49.40;;;;;;5128481;27;34347;-76
2021/12/19 12:46:51;;;;;;;1.60;1.38;;;10.20;49.40;;;;;;5127657;27;34348;-76
2021/12/19 12:49:20;;;;;;;1.15;1.05;;;10.20;49.60;;;;;;5128231;27;34618;-75
2021/12/19 12:51:50;;;;;;;1.67;1.17;;;10.10;49.70;;;;;;5127953;27;35742;-75
2021/12/19 12:54:22;;;;;;;1.30;1.20;;;10.20;49.70;;;;;;5094502;27;34274;-75
2021/12/19 12:56:51;;;;;;;1.95;1.25;;;10.20;49.70;;;;;;5128632;27;34190;-76
2021/12/19 12:59:21;;;;;;;1.38;1.27;;;10.20;49.70;;;;;;5111112;27;34070;-76
2021/12/19 13:01:54;;;;;;;1.38;1.13;;;10.20;49.70;;;;;;5110976;27;35982;-75
2021/12/19 13:04:25;;;;;;;1.50;1.05;;;10.10;49.50;;;;;;5128080;27;34176;-75
2021/12/19 13:07:10;;;;;;;1.58;1.10;;;10.10;49.20;;;;;;5130942;27;34311;-75
2021/12/19 13:09:40;;;;;;;1.65;1.15;;;10.10;47.40;;;;;;5111792;27;34570;-75
2021/12/19 13:12:20;;;;;;;0.95;0.95;;;10.00;49.70;;;;;;5111710;27;35914;-75
2021/12/19 13:14:50;;;;;;;1.38;1.10;;;10.00;48.20;;;;;;5128103;27;34378;-75
2021/12/19 13:17:23;;;;;;;1.42;0.98;;;10.00;49.50;;;;;;5111814;27;34088;-75
2021/12/19 13:19:54;;;;;;;1.33;1.20;;;9.90;49.50;;;;;;5147075;27;34385;-76
2021/12/19 13:22:24;;;;;;;1.55;1.13;;;9.80;49.60;;;;;;5128300;27;35639;-75
2021/12/19 13:24:52;;;;;;;1.60;1.23;;;9.70;49.60;;;;;;5128338;27;34137;-76
2021/12/19 13:27:21;;;;;;;1.27;0.95;;;9.70;49.70;;;;;;5128464;27;34155;-76
2021/12/19 13:30:07;;;;;;;1.33;1.13;;;9.60;49.60;;;;;;5128636;27;34414;-76
2021/12/19 13:32:45;;;;;;;1.52;1.23;;;9.50;48.20;;;;;;5127857;27;34453;-75
2021/12/19 13:35:21;;;;;;;2.95;1.10;;;9.50;49.30;;;;;;5145759;27;34209;-76
2021/12/19 13:37:54;;;;;;;1.40;1.13;;;9.40;49.50;;;;;;5110173;27;34197;-76
2021/12/19 13:40:24;;;;;;;1.63;1.17;;;9.30;49.70;;;;;;5127215;27;34129;-75
2021/12/19 13:42:54;;;;;;;1.38;1.13;;;9.20;49.90;;;;;;5110578;27;36598;-76
2021/12/19 13:45:32;;;;;;;1.45;1.25;;;9.10;50.00;;;;;;5127263;27;34424;-76
2021/12/19 13:48:02;;;;;;;1.80;1.02;;;9.10;49.90;;;;;;5127131;27;34224;-75
2021/12/19 13:50:32;;;;;;;1.85;1.25;;;8.90;50.20;;;;;;5128214;27;34196;-76
2021/12/19 13:53:01;;;;;;;1.85;1.30;;;8.90;50.20;;;;;;5126988;27;35858;-76
2021/12/19 13:55:39;;;;;;;2.72;1.55;;;8.80;50.30;;;;;;5127518;27;34236;-76
2021/12/19 13:58:07;;;;;;;1.60;1.30;;;8.70;50.50;;;;;;5110345;27;34496;-75
2021/12/19 14:00:37;;;;;;;1.10;1.00;;;8.60;50.50;;;;;;5127665;27;34356;-76
2021/12/19 14:03:03;;;;;;;1.38;1.00;;;8.60;50.60;;;;;;5126537;27;35702;-76
2021/12/19 14:05:33;;;;;;;2.00;1.40;;;8.60;50.70;;;;;;5126647;27;34280;-75
2021/12/19 14:08:00;;;;;;;2.13;1.38;;;8.50;50.70;;;;;;5127886;27;34339;-76